createdAt,value
2018-04-19T00:00:41.883Z,37.13
2018-04-19T00:03:08.095Z,34.40
2018-04-19T00:05:34.288Z,38.20
2018-04-19T00:08:00.477Z,39.60
2018-04-19T00:10:26.689Z,35.67
2018-04-19T00:12:52.900Z,35.53
2018-04-19T00:15:19.089Z,39.00
2018-04-19T00:17:45.289Z,36.10
2018-04-19T00:20:11.493Z,38.47
2018-04-19T00:22:37.690Z,36.87
2018-04-19T00:25:03.872Z,40.70
2018-04-19T00:27:30.082Z,37.03
2018-04-19T00:29:56.282Z,41.03
2018-04-19T00:32:22.460Z,36.90
2018-04-19T00:34:48.676Z,36.93
2018-04-19T00:37:14.885Z,36.47
2018-04-19T00:39:41.120Z,36.37
2018-04-19T00:42:07.332Z,37.80
2018-04-19T00:44:34.274Z,34.37
2018-04-19T00:47:00.456Z,35.93
2018-04-19T00:49:27.401Z,41.97
2018-04-19T00:51:54.350Z,37.23
2018-04-19T00:54:21.345Z,32.07
2018-04-19T00:56:47.516Z,40.17
2018-04-19T00:59:14.445Z,38.63
2018-04-19T01:01:40.684Z,35.13
2018-04-19T01:04:06.899Z,38.90
2018-04-19T01:06:33.086Z,44.43
2018-04-19T01:08:59.272Z,38.07
2018-04-19T01:11:25.468Z,39.07
2018-04-19T01:13:51.665Z,38.87
2018-04-19T01:16:17.845Z,42.20
2018-04-19T01:18:44.068Z,39.40
2018-04-19T01:21:10.264Z,35.30
2018-04-19T01:23:36.469Z,37.63
2018-04-19T01:26:02.685Z,37.00
2018-04-19T01:28:29.625Z,39.40
2018-04-19T01:30:56.555Z,35.10
2018-04-19T01:33:22.735Z,36.10
2018-04-19T01:38:58.380Z,32.03
2018-04-19T01:41:25.188Z,37.83
2018-04-19T01:43:51.269Z,41.60
2018-04-19T01:46:17.343Z,35.87
2018-04-19T01:48:43.434Z,35.93
2018-04-19T01:51:09.508Z,38.27
2018-04-19T01:53:36.315Z,35.63
2018-04-19T01:56:02.392Z,35.40
2018-04-19T01:58:28.459Z,37.77
2018-04-19T02:00:54.535Z,36.13
2018-04-19T02:03:21.339Z,34.13
2018-04-19T02:05:48.154Z,38.30
2018-04-19T02:08:14.223Z,36.07
2018-04-19T02:10:40.289Z,37.33
2018-04-19T02:13:06.359Z,33.63
2018-04-19T02:15:32.428Z,35.10
2018-04-19T02:17:58.500Z,40.73
2018-04-19T02:20:24.568Z,39.33
2018-04-19T02:22:51.372Z,34.93
2018-04-19T02:25:17.448Z,39.47
2018-04-19T02:27:43.519Z,35.23
2018-04-19T02:30:09.589Z,36.53
2018-04-19T02:32:36.405Z,33.87
2018-04-19T02:35:02.479Z,33.03
2018-04-19T02:37:28.544Z,38.13
2018-04-19T02:39:54.613Z,35.93
2018-04-19T02:42:20.680Z,36.70
2018-04-19T02:44:46.759Z,36.93
2018-04-19T02:47:12.831Z,35.57
2018-04-19T02:49:38.916Z,37.93
2018-04-19T02:52:04.992Z,35.83
2018-04-19T02:54:31.099Z,36.37
2018-04-19T02:56:57.173Z,39.10
2018-04-19T02:59:23.984Z,38.97
2018-04-19T03:01:50.064Z,37.90
2018-04-19T03:04:16.129Z,40.73
2018-04-19T03:06:42.200Z,37.93
2018-04-19T03:09:08.275Z,39.67
2018-04-19T03:11:34.347Z,40.50
2018-04-19T03:14:01.156Z,41.23
2018-04-19T03:16:27.239Z,40.97
2018-04-19T03:18:53.303Z,45.50
2018-04-19T03:21:19.377Z,37.23
2018-04-19T03:23:45.443Z,35.33
2018-04-19T03:26:11.521Z,39.63
2018-04-19T03:28:37.592Z,45.67
2018-04-19T03:31:03.669Z,48.30
2018-04-19T03:33:29.757Z,38.57
2018-04-19T03:35:55.831Z,40.70
2018-04-19T03:38:21.910Z,39.60
2018-04-19T03:40:47.993Z,39.10
2018-04-19T03:43:14.072Z,44.03
2018-04-19T03:45:40.131Z,46.87
2018-04-19T03:48:06.202Z,48.33
2018-04-19T03:50:32.272Z,54.30
2018-04-19T03:52:58.351Z,53.20
2018-04-19T03:55:24.422Z,50.67
2018-04-19T03:57:50.507Z,50.97
2018-04-19T04:00:16.588Z,43.33
2018-04-19T04:02:42.655Z,44.73
2018-04-19T04:05:08.720Z,43.13
2018-04-19T04:07:35.528Z,44.23
2018-04-19T04:10:01.605Z,45.57
2018-04-19T04:12:27.677Z,47.20
2018-04-19T04:14:53.743Z,48.57
2018-04-19T04:17:38.448Z,47.57
2018-04-19T04:26:22.988Z,46.17
2018-04-19T04:28:49.791Z,49.03
2018-04-19T04:31:15.871Z,44.30
2018-04-19T04:33:41.944Z,47.07
2018-04-19T04:36:08.052Z,48.10
2018-04-19T04:38:34.132Z,40.97
2018-04-19T04:41:00.944Z,40.50
2018-04-19T04:43:27.018Z,41.00
2018-04-19T04:45:53.084Z,41.90
2018-04-19T04:48:19.168Z,38.80
2018-04-19T04:50:45.243Z,43.17
2018-04-19T04:53:11.315Z,38.23
2018-04-19T04:55:37.383Z,42.77
2018-04-19T04:58:03.482Z,38.67
2018-04-19T05:00:29.556Z,36.17
2018-04-19T05:02:55.628Z,36.87
2018-04-19T05:05:21.720Z,37.40
2018-04-19T05:07:48.548Z,35.87
2018-04-19T05:10:14.644Z,42.90
2018-04-19T05:12:40.728Z,35.27
2018-04-19T05:15:07.544Z,35.47
2018-04-19T05:17:33.617Z,34.43
2018-04-19T05:19:59.700Z,34.80
2018-04-19T05:22:25.768Z,32.00
2018-04-19T05:24:59.981Z,33.83
2018-04-19T05:27:26.059Z,36.23
2018-04-19T05:29:52.163Z,32.47
2018-04-19T05:32:18.231Z,25.83
2018-04-19T05:34:45.044Z,24.90
2018-04-19T05:37:11.133Z,23.67
2018-04-19T05:39:37.188Z,21.50
2018-04-19T05:42:03.256Z,27.07
2018-04-19T05:44:29.323Z,20.43
2018-04-19T05:46:55.405Z,21.73
2018-04-19T05:49:22.224Z,20.37
2018-04-19T05:51:48.299Z,19.23
2018-04-19T05:54:14.367Z,18.07
2018-04-19T05:56:40.452Z,17.17
2018-04-19T05:59:06.523Z,18.27
2018-04-19T06:01:32.600Z,15.27
2018-04-19T06:03:58.727Z,17.93
2018-04-19T06:06:24.832Z,16.10
2018-04-19T06:08:50.900Z,17.37
2018-04-19T06:11:16.975Z,18.97
2018-04-19T06:13:43.792Z,20.60
2018-04-19T06:16:09.872Z,17.70
2018-04-19T06:18:35.987Z,22.87
2018-04-19T06:21:02.064Z,21.40
2018-04-19T06:23:28.137Z,17.97
2018-04-19T06:25:54.219Z,17.63
2018-04-19T06:28:20.299Z,19.97
2018-04-19T06:30:46.376Z,17.63
2018-04-19T06:33:13.195Z,24.97
2018-04-19T06:35:39.261Z,21.70
2018-04-19T06:38:06.102Z,17.10
2018-04-19T06:40:32.935Z,16.93
2018-04-19T06:42:59.743Z,16.57
2018-04-19T06:45:25.820Z,20.77
2018-04-19T06:47:51.895Z,19.67
2018-04-19T06:50:17.984Z,19.10
2018-04-19T06:52:44.061Z,20.67
2018-04-19T06:55:10.138Z,20.90
2018-04-19T06:57:36.207Z,22.07
2018-04-19T07:00:02.277Z,17.80
2018-04-19T07:02:28.360Z,19.10
2018-04-19T07:04:54.439Z,21.20
2018-04-19T07:07:20.508Z,17.63
2018-04-19T07:09:46.585Z,17.23
2018-04-19T07:12:12.663Z,16.47
2018-04-19T07:14:38.806Z,21.50
2018-04-19T07:17:04.828Z,20.10
2018-04-19T07:19:31.648Z,19.33
2018-04-19T07:21:57.724Z,21.30
2018-04-19T07:24:23.803Z,21.25
2018-04-19T07:26:49.884Z,17.00
2018-04-19T07:29:15.956Z,19.87
2018-04-19T07:31:42.036Z,19.70
2018-04-19T07:34:08.121Z,19.20
2018-04-19T07:36:34.940Z,17.02
2018-04-19T07:39:01.045Z,23.05
2018-04-19T07:41:30.736Z,19.50
2018-04-19T07:43:56.816Z,19.83
2018-04-19T07:46:23.642Z,22.27
2018-04-19T07:48:49.711Z,20.80
2018-04-19T07:51:15.796Z,19.12
2018-04-19T07:53:41.873Z,18.60
2018-04-19T07:56:07.960Z,18.37
2018-04-19T07:58:34.779Z,17.40
2018-04-19T08:01:00.847Z,18.92
2018-04-19T08:03:26.946Z,16.37
2018-04-19T08:05:53.028Z,20.50
2018-04-19T08:08:19.112Z,20.77
2018-04-19T08:10:45.939Z,17.45
2018-04-19T08:13:12.019Z,22.10
2018-04-19T08:15:38.102Z,17.98
2018-04-19T08:18:04.919Z,19.00
2018-04-19T08:20:30.996Z,21.08
2018-04-19T08:22:57.091Z,18.58
2018-04-19T08:25:23.905Z,18.67
2018-04-19T08:27:49.993Z,20.67
2018-04-19T08:30:16.065Z,16.80
2018-04-19T08:32:42.167Z,17.77
2018-04-19T08:35:08.280Z,17.45
2018-04-19T08:37:35.050Z,19.85
2018-04-19T08:40:01.132Z,17.58
2018-04-19T08:42:27.200Z,24.12
2018-04-19T08:44:53.288Z,17.42
2018-04-19T08:47:19.356Z,18.67
2018-04-19T08:49:45.457Z,21.15
2018-04-19T08:52:11.542Z,20.30
2018-04-19T08:54:38.372Z,22.55
2018-04-19T08:57:05.195Z,16.73
2018-04-19T08:59:31.281Z,20.90
2018-04-19T09:01:57.351Z,19.15
2018-04-19T09:04:23.428Z,19.92
2018-04-19T09:06:49.503Z,18.50
2018-04-19T09:09:15.606Z,19.48
2018-04-19T09:11:41.679Z,21.05
2018-04-19T09:14:08.508Z,17.20
2018-04-19T09:16:35.335Z,19.33
2018-04-19T09:19:01.417Z,22.98
2018-04-19T09:21:27.492Z,22.00
2018-04-19T09:24:14.008Z,20.55
2018-04-19T09:26:40.838Z,22.60
2018-04-19T09:29:06.931Z,20.00
2018-04-19T09:31:33.015Z,21.67
2018-04-19T09:33:59.829Z,21.62
2018-04-19T09:36:25.920Z,22.13
2018-04-19T09:38:51.986Z,25.02
2018-04-19T09:41:18.072Z,21.25
2018-04-19T09:43:44.147Z,24.50
2018-04-19T09:46:11.022Z,22.95
2018-04-19T09:48:37.108Z,24.63
2018-04-19T09:51:03.195Z,21.40
2018-04-19T09:53:29.280Z,21.30
2018-04-19T09:55:55.389Z,21.83
2018-04-19T09:58:22.207Z,21.55
2018-04-19T10:00:54.454Z,19.37
2018-04-19T10:03:20.541Z,20.42
2018-04-19T10:05:47.370Z,21.40
2018-04-19T10:08:14.192Z,17.80
2018-04-19T10:10:40.272Z,20.65
2018-04-19T10:13:06.355Z,17.80
2018-04-19T10:15:32.433Z,21.20
2018-04-19T10:18:14.377Z,21.17
2018-04-19T10:20:46.791Z,19.02
2018-04-19T10:23:37.368Z,19.50
2018-04-19T10:26:04.182Z,21.90
2018-04-19T10:28:34.635Z,22.95
2018-04-19T10:31:01.476Z,21.25
2018-04-19T10:33:28.300Z,19.15
2018-04-19T10:36:00.931Z,19.20
2018-04-19T10:38:27.035Z,21.95
2018-04-19T10:40:53.851Z,18.40
2018-04-19T10:43:19.932Z,20.62
2018-04-19T10:45:46.027Z,21.30
2018-04-19T10:48:12.849Z,19.33
2018-04-19T10:50:38.937Z,18.15
2018-04-19T10:56:05.275Z,18.35
2018-04-19T10:58:31.360Z,18.25
2018-04-19T11:00:58.203Z,15.63
2018-04-19T11:03:25.024Z,14.20
2018-04-19T11:05:51.103Z,12.85
2018-04-19T11:08:17.165Z,13.95
2018-04-19T11:10:43.253Z,14.18
2018-04-19T11:13:09.322Z,16.42
2018-04-19T11:15:35.421Z,16.70
2018-04-19T11:18:01.500Z,13.38
2018-04-19T11:20:28.323Z,14.35
2018-04-19T11:22:54.397Z,17.08
2018-04-19T11:25:20.477Z,20.10
2018-04-19T11:27:47.305Z,15.48
2018-04-19T11:30:14.901Z,15.68
2018-04-19T11:32:41.724Z,18.12
2018-04-19T11:35:07.796Z,15.82
2018-04-19T11:37:33.884Z,13.48
2018-04-19T11:40:00.704Z,14.13
2018-04-19T11:42:26.793Z,13.75
2018-04-19T11:44:52.889Z,13.88
2018-04-19T11:47:19.712Z,12.18
2018-04-19T11:49:45.800Z,16.15
2018-04-19T11:52:11.884Z,13.40
2018-04-19T11:54:37.962Z,13.32
2018-04-19T11:57:04.051Z,13.30
2018-04-19T11:59:30.144Z,13.18
2018-04-19T12:01:56.253Z,15.25
2018-04-19T12:04:22.328Z,13.62
2018-04-19T12:06:48.407Z,13.65
2018-04-19T12:09:14.496Z,14.63
2018-04-19T12:11:40.559Z,15.32
2018-04-19T12:14:06.640Z,15.63
2018-04-19T12:16:32.720Z,11.70
2018-04-19T12:18:59.548Z,12.85
2018-04-19T12:21:25.615Z,14.23
2018-04-19T12:23:51.704Z,12.80
2018-04-19T12:26:17.792Z,11.82
2018-04-19T12:28:43.883Z,12.05
2018-04-19T12:31:09.966Z,16.40
2018-04-19T12:33:36.083Z,13.73
2018-04-19T12:36:02.160Z,12.35
2018-04-19T12:38:28.240Z,14.65
2018-04-19T12:40:54.333Z,13.57
2018-04-19T12:43:20.404Z,15.73
2018-04-19T12:45:46.480Z,13.02
2018-04-19T12:48:12.563Z,13.65
2018-04-19T12:50:38.651Z,16.35
2018-04-19T12:53:04.729Z,11.68
2018-04-19T12:55:31.547Z,9.25
2018-04-19T12:57:57.620Z,9.90
2018-04-19T13:00:23.709Z,13.88
2018-04-19T13:02:50.532Z,13.82
2018-04-19T13:05:16.633Z,14.32
2018-04-19T13:07:42.707Z,13.38
2018-04-19T13:10:09.523Z,12.05
2018-04-19T13:12:35.604Z,12.77
2018-04-19T13:15:01.680Z,14.30
2018-04-19T13:17:27.764Z,13.40
2018-04-19T13:19:53.839Z,13.05
2018-04-19T13:22:19.916Z,14.98
2018-04-19T13:24:46.004Z,12.40
2018-04-19T13:27:12.830Z,11.60
2018-04-19T13:30:04.672Z,13.50
2018-04-19T13:32:31.503Z,11.45
2018-04-19T13:34:57.571Z,11.35
2018-04-19T13:37:23.644Z,11.02
2018-04-19T13:39:49.757Z,10.05
2018-04-19T13:42:15.825Z,13.30
2018-04-19T13:44:42.639Z,13.43
2018-04-19T13:47:08.733Z,12.25
2018-04-19T13:49:34.820Z,10.30
2018-04-19T13:52:01.657Z,13.32
2018-04-19T13:54:28.484Z,12.63
2018-04-19T13:56:54.574Z,9.60
2018-04-19T13:59:20.642Z,9.07
2018-04-19T14:01:47.464Z,11.73
2018-04-19T14:04:13.545Z,15.05
2018-04-19T14:06:39.620Z,12.18
2018-04-19T14:09:06.716Z,12.32
2018-04-19T14:11:32.816Z,15.85
2018-04-19T14:13:59.646Z,10.70
2018-04-19T14:16:40.085Z,12.30
2018-04-19T14:19:06.167Z,10.30
2018-04-19T14:21:32.240Z,11.65
2018-04-19T14:23:58.327Z,12.20
2018-04-19T14:26:24.408Z,13.38
2018-04-19T14:28:50.487Z,13.48
2018-04-19T14:31:16.606Z,12.93
2018-04-19T14:33:42.667Z,11.25
2018-04-19T14:36:08.746Z,12.13
2018-04-19T14:38:34.851Z,9.63
2018-04-19T14:41:01.716Z,11.25
2018-04-19T14:43:27.792Z,10.65
2018-04-19T14:45:55.347Z,9.50
2018-04-19T14:48:21.412Z,10.73
2018-04-19T14:50:48.235Z,10.23
2018-04-19T14:53:14.312Z,11.05
2018-04-19T14:55:40.399Z,10.35
2018-04-19T14:58:06.473Z,9.18
2018-04-19T15:00:32.555Z,11.23
2018-04-19T15:02:58.623Z,8.27
2018-04-19T15:05:24.704Z,8.05
2018-04-19T15:07:50.775Z,7.40
2018-04-19T15:10:16.860Z,7.78
2018-04-19T15:12:42.936Z,8.65
2018-04-19T15:15:09.011Z,7.00
2018-04-19T15:17:35.137Z,7.30
2018-04-19T15:20:01.267Z,8.02
2018-04-19T15:22:27.313Z,7.85
2018-04-19T15:24:53.395Z,6.55
2018-04-19T15:27:20.221Z,6.32
2018-04-19T15:29:46.305Z,10.63
2018-04-19T15:32:12.387Z,9.10
2018-04-19T15:34:39.205Z,6.68
2018-04-19T15:37:05.296Z,6.60
2018-04-19T15:39:31.380Z,6.85
2018-04-19T15:41:58.220Z,7.82
2018-04-19T15:44:24.298Z,6.72
2018-04-19T15:46:50.396Z,5.95
2018-04-19T15:49:16.488Z,4.75
2018-04-19T15:51:42.556Z,6.78
2018-04-19T15:54:08.652Z,7.93
2018-04-19T15:56:35.482Z,6.18
2018-04-19T15:59:01.596Z,6.45
2018-04-19T16:01:27.643Z,4.00
2018-04-19T16:03:54.468Z,7.10
2018-04-19T16:06:20.555Z,7.85
2018-04-19T16:08:46.652Z,5.03
2018-04-19T16:11:13.514Z,5.05
2018-04-19T16:13:39.593Z,4.85
2018-04-19T16:16:05.689Z,6.90
2018-04-19T16:18:31.776Z,9.00
2018-04-19T16:20:57.855Z,7.20
2018-04-19T16:23:23.949Z,6.20
2018-04-19T16:25:50.032Z,6.07
2018-04-19T16:28:16.891Z,5.15
2018-04-19T16:30:43.689Z,6.05
2018-04-19T16:33:09.774Z,6.60
2018-04-19T16:35:35.852Z,6.12
2018-04-19T16:38:02.689Z,8.60
2018-04-19T16:40:28.783Z,6.12
2018-04-19T16:42:54.871Z,8.85
2018-04-19T16:45:21.704Z,8.48
2018-04-19T16:47:48.519Z,7.22
2018-04-19T16:50:14.611Z,8.98
2018-04-19T16:52:40.688Z,7.80
2018-04-19T16:55:06.759Z,8.00
2018-04-19T16:57:32.828Z,5.18
2018-04-19T16:59:58.916Z,6.70
2018-04-19T17:02:24.988Z,7.45
2018-04-19T17:04:51.080Z,7.80
2018-04-19T17:07:17.164Z,8.57
2018-04-19T17:09:43.244Z,9.40
2018-04-19T17:12:09.336Z,4.75
2018-04-19T17:14:35.427Z,8.65
2018-04-19T17:17:02.256Z,6.20
2018-04-19T17:19:28.327Z,5.70
2018-04-19T17:21:54.484Z,7.78
2018-04-19T17:24:20.522Z,8.27
2018-04-19T17:26:46.610Z,6.37
2018-04-19T17:29:12.701Z,5.55
2018-04-19T17:31:39.519Z,7.30
2018-04-19T17:34:06.345Z,10.00
2018-04-19T17:36:32.433Z,5.87
2018-04-19T17:38:58.508Z,8.27
2018-04-19T17:41:24.596Z,10.60
2018-04-19T17:43:50.680Z,9.40
2018-04-19T17:46:17.488Z,7.40
2018-04-19T17:48:43.569Z,10.02
2018-04-19T17:51:09.661Z,7.53
2018-04-19T17:53:35.744Z,7.90
2018-04-19T17:56:01.815Z,7.85
2018-04-19T17:58:27.896Z,7.43
2018-04-19T18:00:53.972Z,8.05
2018-04-19T18:03:20.800Z,6.87
2018-04-19T18:05:48.360Z,7.65
2018-04-19T18:08:14.445Z,7.43
2018-04-19T18:10:40.507Z,6.03
2018-04-19T18:13:06.587Z,8.35
2018-04-19T18:15:32.674Z,22.67
2018-04-19T18:17:59.496Z,6.53
2018-04-19T18:20:25.561Z,6.37
2018-04-19T18:22:51.713Z,7.10
2018-04-19T18:25:49.791Z,8.02
2018-04-19T18:28:15.872Z,8.23
2018-04-19T18:30:42.698Z,8.98
2018-04-19T18:33:08.780Z,7.77
2018-04-19T18:35:34.847Z,9.57
2018-04-19T18:38:00.931Z,7.47
2018-04-19T18:40:26.996Z,9.00
2018-04-19T18:42:53.084Z,10.77
2018-04-19T18:45:19.169Z,8.07
2018-04-19T18:47:45.980Z,10.67
2018-04-19T18:50:12.124Z,8.97
2018-04-19T18:52:46.085Z,10.57
2018-04-19T18:55:12.160Z,10.10
2018-04-19T18:57:38.224Z,9.27
2018-04-19T19:00:04.292Z,7.63
2018-04-19T19:02:30.352Z,6.97
2018-04-19T19:04:57.171Z,7.40
2018-04-19T19:07:23.235Z,8.60
2018-04-19T19:09:49.308Z,9.03
2018-04-19T19:12:15.368Z,12.70
2018-04-19T19:14:42.183Z,8.87
2018-04-19T19:17:26.978Z,9.07
2018-04-19T19:20:11.152Z,8.80
2018-04-19T19:22:37.228Z,10.50
2018-04-19T19:25:03.303Z,11.03
2018-04-19T19:27:29.386Z,11.13
2018-04-19T19:29:55.463Z,13.17
2018-04-19T19:32:21.546Z,9.93
2018-04-19T19:34:49.376Z,13.63
2018-04-19T19:37:15.460Z,13.33
2018-04-19T19:39:41.540Z,10.27
2018-04-19T19:42:07.617Z,10.97
2018-04-19T19:44:33.728Z,9.10
2018-04-19T19:47:00.547Z,9.57
2018-04-19T19:49:26.628Z,15.63
2018-04-19T19:51:52.804Z,12.00
2018-04-19T19:54:18.867Z,11.57
2018-04-19T19:56:44.943Z,11.30
2018-04-19T19:59:11.008Z,10.73
2018-04-19T20:01:37.084Z,10.73
2018-04-19T20:04:03.157Z,15.00
2018-04-19T20:06:29.240Z,16.40
2018-04-19T20:08:55.314Z,12.83
2018-04-19T20:11:21.397Z,10.97
2018-04-19T20:13:47.464Z,12.20
2018-04-19T20:16:16.844Z,12.37
2018-04-19T20:18:43.644Z,12.27
2018-04-19T20:21:09.726Z,15.20
2018-04-19T20:23:53.212Z,12.57
2018-04-19T20:29:26.488Z,16.60
2018-04-19T20:35:05.679Z,13.67
2018-04-19T20:37:31.750Z,13.17
2018-04-19T20:39:57.823Z,13.03
2018-04-19T20:42:55.015Z,14.40
2018-04-19T20:45:47.860Z,15.43
2018-04-19T20:48:25.624Z,11.83
2018-04-19T20:50:51.703Z,14.17
2018-04-19T20:53:17.789Z,11.07
2018-04-19T20:55:47.315Z,12.23
2018-04-19T20:58:45.649Z,15.97
2018-04-19T21:01:25.303Z,13.17
2018-04-19T21:03:51.375Z,14.23
2018-04-19T21:06:18.188Z,13.07
2018-04-19T21:09:17.772Z,15.27
2018-04-19T21:11:43.845Z,14.83
2018-04-19T21:14:17.388Z,11.90
2018-04-19T21:19:43.819Z,16.93
2018-04-19T21:22:13.208Z,13.57
2018-04-19T21:24:40.033Z,13.93
2018-04-19T21:27:09.947Z,14.83
2018-04-19T21:29:36.036Z,15.73
2018-04-19T21:32:02.103Z,14.60
2018-04-19T21:34:28.176Z,13.27
2018-04-19T21:37:15.572Z,15.20
2018-04-19T21:39:43.439Z,14.33
2018-04-19T21:42:10.248Z,13.60
2018-04-19T21:44:43.112Z,17.13
2018-04-19T21:47:09.180Z,17.80
2018-04-19T21:49:36.034Z,16.97
2018-04-19T21:52:02.088Z,15.70
2018-04-19T21:54:28.168Z,18.70
2018-04-19T21:56:54.252Z,20.87
2018-04-19T21:59:20.307Z,17.33
2018-04-19T22:02:01.684Z,17.30
2018-04-19T22:04:31.213Z,23.07
2018-04-19T22:07:08.752Z,19.50
2018-04-19T22:09:50.166Z,19.17
2018-04-19T22:12:22.707Z,22.30
2018-04-19T22:14:48.844Z,19.60
2018-04-19T22:17:15.634Z,17.67
2018-04-19T22:19:41.708Z,17.33
2018-04-19T22:22:07.796Z,17.53
2018-04-19T22:24:34.620Z,18.57
2018-04-19T22:27:17.990Z,23.43
2018-04-19T22:29:44.016Z,19.53
2018-04-19T22:32:10.078Z,21.77
2018-04-19T22:34:36.165Z,19.03
2018-04-19T22:37:02.227Z,26.63
2018-04-19T22:39:28.300Z,23.20
2018-04-19T22:41:54.376Z,22.60
2018-04-19T22:44:20.472Z,22.70
2018-04-19T22:46:46.556Z,22.23
2018-04-19T22:49:12.636Z,21.50
2018-04-19T22:51:38.715Z,23.87
2018-04-19T22:54:05.520Z,22.60
2018-04-19T22:56:31.602Z,23.67
2018-04-19T22:58:57.676Z,22.13
2018-04-19T23:01:23.748Z,21.57
2018-04-19T23:03:49.827Z,23.37
2018-04-19T23:06:15.903Z,24.27
2018-04-19T23:08:41.992Z,22.87
2018-04-19T23:11:08.065Z,23.10
2018-04-19T23:13:34.127Z,28.50
2018-04-19T23:16:00.204Z,22.00
2018-04-19T23:18:26.257Z,22.10
2018-04-19T23:20:52.311Z,20.27
2018-04-19T23:23:18.367Z,23.70
2018-04-19T23:25:45.177Z,21.50
2018-04-19T23:28:11.968Z,23.70
2018-04-19T23:30:38.073Z,25.40
2018-04-19T23:33:04.095Z,26.23
2018-04-19T23:35:30.910Z,25.53
2018-04-19T23:37:56.971Z,26.33
2018-04-19T23:40:23.763Z,26.27
2018-04-19T23:42:49.826Z,24.27
2018-04-19T23:45:16.627Z,27.63
2018-04-19T23:47:42.693Z,25.43
2018-04-19T23:50:09.496Z,22.67
2018-04-19T23:52:35.563Z,23.73
2018-04-19T23:55:02.353Z,21.33
2018-04-19T23:57:28.411Z,23.43
2018-04-19T23:59:54.480Z,23.53
